createdAt,value
2023-11-17T00:02:45.799Z,100038.44
2023-11-17T00:07:49.707Z,100041.88
2023-11-17T00:12:53.767Z,100037.69
2023-11-17T00:17:57.922Z,100043.81
2023-11-17T00:23:01.991Z,100053.44
2023-11-17T00:28:06.069Z,100066.69
2023-11-17T00:33:10.618Z,100070.13
2023-11-17T00:38:15.528Z,100067.53
2023-11-17T00:43:20.542Z,100071.03
2023-11-17T00:48:24.648Z,100088.34
2023-11-17T00:53:31.113Z,100070.19
2023-11-17T00:59:24.241Z,100061.59
2023-11-17T01:04:28.070Z,100078.91
2023-11-17T01:09:32.125Z,100083.34
2023-11-17T01:14:36.255Z,100032.22
2023-11-17T01:19:42.080Z,100065.56
2023-11-17T01:24:46.235Z,100068.53
2023-11-17T01:29:50.152Z,100087.41
2023-11-17T01:34:58.880Z,100071.31
2023-11-17T01:40:02.931Z,100073.25
2023-11-17T01:45:10.651Z,100089.91
2023-11-17T01:50:16.568Z,100087.56
2023-11-17T01:55:21.191Z,100112.81
2023-11-17T02:00:25.929Z,100117.25
2023-11-17T02:05:30.110Z,100114.75
2023-11-17T02:10:48.444Z,100121.88
2023-11-17T02:15:57.248Z,100133.16
2023-11-17T02:21:02.215Z,100135.56
2023-11-17T02:26:19.129Z,100127.88
2023-11-17T02:31:31.304Z,100122.88
2023-11-17T02:36:35.988Z,100123.78
2023-11-17T02:41:44.922Z,100129.81
2023-11-17T02:47:00.917Z,100152.28
2023-11-17T02:52:22.252Z,100151.47
2023-11-17T02:57:28.620Z,100144.97
2023-11-17T03:02:32.859Z,100150.22
2023-11-17T03:07:39.872Z,100155.16
2023-11-17T03:12:43.969Z,100164.69
2023-11-17T03:17:47.796Z,100169.19
2023-11-17T03:22:51.702Z,100162.44
2023-11-17T03:27:56.499Z,100174.47
2023-11-17T03:33:00.722Z,100185.75
2023-11-17T03:38:04.881Z,100190.28
2023-11-17T03:43:08.779Z,100185.00
2023-11-17T03:48:12.887Z,100202.03
2023-11-17T03:53:17.676Z,100221.75
2023-11-17T03:58:21.757Z,100225.00
2023-11-17T04:03:26.684Z,100228.34
2023-11-17T04:08:30.520Z,100216.22
2023-11-17T04:13:38.517Z,100217.31
2023-11-17T04:18:43.265Z,100225.44
2023-11-17T04:23:47.121Z,100225.63
2023-11-17T04:28:51.343Z,100227.44
2023-11-17T04:33:56.553Z,100252.78
2023-11-17T04:39:01.332Z,100250.34
2023-11-17T04:44:08.355Z,100255.44
2023-11-17T04:49:14.989Z,100241.66
2023-11-17T04:54:18.799Z,100220.56
2023-11-17T04:59:23.662Z,100273.56
2023-11-17T05:04:27.663Z,100279.50
2023-11-17T05:09:32.243Z,100287.44
2023-11-17T05:14:38.638Z,100294.63
2023-11-17T05:19:42.536Z,100294.13
2023-11-17T05:24:46.673Z,100293.75
2023-11-17T05:29:50.509Z,100281.03
2023-11-17T05:34:55.057Z,100264.69
2023-11-17T05:39:59.053Z,100275.16
2023-11-17T05:45:04.085Z,100281.94
2023-11-17T05:50:13.734Z,100281.25
2023-11-17T05:55:19.287Z,100290.13
2023-11-17T06:00:23.501Z,100295.72
2023-11-17T06:05:27.405Z,100298.56
2023-11-17T06:10:31.368Z,100305.66
2023-11-17T06:15:36.791Z,100310.59
2023-11-17T06:20:41.673Z,100315.59
2023-11-17T06:25:45.889Z,100316.69
2023-11-17T06:30:49.822Z,100316.69
2023-11-17T06:35:54.087Z,100282.34
2023-11-17T06:40:58.484Z,100329.34
2023-11-17T06:46:03.714Z,100331.78
2023-11-17T06:51:10.524Z,100337.63
2023-11-17T06:56:14.595Z,100337.44
2023-11-17T07:01:21.324Z,100329.59
2023-11-17T07:06:29.230Z,100339.03
2023-11-17T07:11:34.070Z,100350.16
2023-11-17T07:16:43.948Z,100351.16
2023-11-17T07:21:52.394Z,100362.88
2023-11-17T07:27:00.059Z,100364.44
2023-11-17T07:32:06.274Z,100370.47
2023-11-17T07:37:10.176Z,100362.78
2023-11-17T07:42:15.445Z,100362.19
2023-11-17T07:47:20.498Z,100366.53
2023-11-17T07:52:25.218Z,100372.56
2023-11-17T07:57:29.112Z,100369.72
2023-11-17T08:02:33.016Z,100379.69
2023-11-17T08:07:37.048Z,100388.28
2023-11-17T08:12:41.173Z,100391.88
2023-11-17T08:17:45.615Z,100401.66
2023-11-17T08:22:50.560Z,100354.47
2023-11-17T08:27:55.377Z,100393.28
2023-11-17T08:32:59.360Z,100405.38
2023-11-17T08:38:03.434Z,100396.94
2023-11-17T08:43:07.377Z,100400.63
2023-11-17T08:48:11.430Z,100405.88
2023-11-17T08:53:15.500Z,100408.47
2023-11-17T08:58:19.322Z,100412.00
2023-11-17T09:03:23.374Z,100427.84
2023-11-17T09:08:27.840Z,100442.66
2023-11-17T09:13:31.920Z,100357.72
2023-11-17T09:18:37.901Z,100435.63
2023-11-17T09:23:41.803Z,100423.75
2023-11-17T09:28:45.825Z,100435.94
2023-11-17T09:33:49.924Z,100397.63
2023-11-17T09:38:55.576Z,100405.59
2023-11-17T09:44:00.753Z,100427.47
2023-11-17T09:49:07.184Z,100432.25
2023-11-17T09:54:15.836Z,100432.47
2023-11-17T09:59:19.779Z,100436.22
2023-11-17T10:04:27.207Z,100434.84
2023-11-17T10:09:32.918Z,100431.81
2023-11-17T10:14:39.872Z,100446.91
2023-11-17T10:19:44.582Z,100448.13
2023-11-17T10:24:48.789Z,100437.66
2023-11-17T10:29:52.734Z,100401.88
2023-11-17T10:35:26.262Z,100460.59
2023-11-17T10:40:33.669Z,100463.41
2023-11-17T10:45:49.443Z,100465.94
2023-11-17T10:51:07.088Z,100471.94
2023-11-17T10:56:29.086Z,100472.78
2023-11-17T11:01:36.190Z,100475.22
2023-11-17T11:06:40.792Z,100478.50
2023-11-17T11:11:52.558Z,100486.09
2023-11-17T11:16:57.674Z,100486.72
2023-11-17T11:22:03.268Z,100494.31
2023-11-17T11:27:09.120Z,100489.66
2023-11-17T11:32:15.860Z,100499.94
2023-11-17T11:38:00.076Z,100510.22
2023-11-17T11:43:05.895Z,100511.06
2023-11-17T11:48:10.642Z,100522.88
2023-11-17T11:53:14.649Z,100517.47
2023-11-17T11:58:18.595Z,100512.13
2023-11-17T12:03:26.804Z,100523.34
2023-11-17T12:08:33.312Z,100519.81
2023-11-17T12:13:55.142Z,100512.28
2023-11-17T12:19:07.880Z,100529.28
2023-11-17T12:24:25.505Z,100526.38
2023-11-17T12:29:35.020Z,100544.25
2023-11-17T12:34:44.072Z,100539.91
2023-11-17T12:39:49.996Z,100547.69
2023-11-17T12:44:55.110Z,100549.38
2023-11-17T12:49:59.026Z,100555.31
2023-11-17T12:55:09.355Z,100544.72
2023-11-17T13:00:23.326Z,100553.09
2023-11-17T13:05:28.442Z,100548.84
2023-11-17T13:10:32.943Z,100547.09
2023-11-17T13:15:37.152Z,100537.88
2023-11-17T13:20:41.722Z,100547.03
2023-11-17T13:26:05.301Z,100544.72
2023-11-17T13:31:24.128Z,100552.19
2023-11-17T13:36:37.433Z,100544.50
2023-11-17T13:41:46.023Z,100536.75
2023-11-17T13:46:51.355Z,100527.59
2023-11-17T13:52:03.892Z,100533.84
2023-11-17T13:57:09.544Z,100547.00
2023-11-17T14:02:13.617Z,100554.00
2023-11-17T14:07:17.636Z,100553.91
2023-11-17T14:12:23.190Z,100545.63
2023-11-17T14:17:28.395Z,100546.66
2023-11-17T14:22:32.420Z,100542.63
2023-11-17T14:27:36.457Z,100554.00
2023-11-17T14:32:40.723Z,100556.03
2023-11-17T14:37:46.404Z,100561.41
2023-11-17T14:42:53.598Z,100562.75
2023-11-17T14:47:58.735Z,100550.94
2023-11-17T14:53:02.742Z,100569.75
2023-11-17T14:58:10.506Z,100580.03
2023-11-17T15:03:15.449Z,100581.69
2023-11-17T15:09:00.442Z,100579.25
2023-11-17T15:14:06.267Z,100588.13
2023-11-17T15:19:14.219Z,100582.34
2023-11-17T15:24:26.133Z,100577.59
2023-11-17T15:29:32.018Z,100587.94
2023-11-17T15:34:37.037Z,100587.63
2023-11-17T15:39:43.000Z,100583.72
2023-11-17T15:44:47.900Z,100586.50
2023-11-17T15:49:51.928Z,100565.06
2023-11-17T15:54:57.143Z,100576.81
2023-11-17T16:00:01.034Z,100567.09
2023-11-17T16:05:07.469Z,100538.00
2023-11-17T16:10:24.040Z,100560.00
2023-11-17T16:15:28.998Z,100558.97
2023-11-17T16:20:33.470Z,100556.09
2023-11-17T16:25:39.747Z,100546.41
2023-11-17T16:30:43.767Z,100541.38
2023-11-17T16:35:48.822Z,100547.94
2023-11-17T16:40:54.320Z,100545.22
2023-11-17T16:45:58.774Z,100550.34
2023-11-17T16:51:04.071Z,100552.06
2023-11-17T16:56:09.545Z,100555.38
2023-11-17T17:01:16.139Z,100544.31
2023-11-17T17:06:20.833Z,100551.09
2023-11-17T17:11:25.984Z,100540.84
2023-11-17T17:16:32.433Z,100537.41
2023-11-17T17:21:36.508Z,100549.34
2023-11-17T17:26:41.440Z,100539.59
2023-11-17T17:31:45.603Z,100542.94
2023-11-17T17:36:49.652Z,100539.44
2023-11-17T17:41:53.893Z,100537.50
2023-11-17T17:46:59.641Z,100534.00
2023-11-17T17:52:03.638Z,100528.66
2023-11-17T17:57:09.259Z,100524.38
2023-11-17T18:02:13.259Z,100527.81
2023-11-17T18:07:19.964Z,100520.94
2023-11-17T18:12:25.666Z,100518.03
2023-11-17T18:17:30.258Z,100526.69
2023-11-17T18:22:36.306Z,100517.25
2023-11-17T18:27:41.782Z,100513.06
2023-11-17T18:32:46.771Z,100511.50
2023-11-17T18:37:52.408Z,100516.50
2023-11-17T18:43:01.026Z,100497.88
2023-11-17T18:48:05.562Z,100501.16
2023-11-17T18:53:10.164Z,100510.28
2023-11-17T18:58:14.266Z,100510.50
2023-11-17T19:03:18.597Z,100507.19
2023-11-17T19:08:22.536Z,100501.09
2023-11-17T19:13:26.871Z,100497.56
2023-11-17T19:18:32.734Z,100507.75
2023-11-17T19:23:36.972Z,100505.94
2023-11-17T19:28:41.001Z,100462.13
2023-11-17T19:33:45.425Z,100497.41
2023-11-17T19:38:49.607Z,100482.06
2023-11-17T19:43:53.699Z,100476.38
2023-11-17T19:48:57.611Z,100486.91
2023-11-17T19:54:01.533Z,100495.72
2023-11-17T19:59:06.339Z,100481.94
2023-11-17T20:04:14.563Z,100475.81
2023-11-17T20:09:26.947Z,100472.47
2023-11-17T20:14:30.931Z,100471.34
2023-11-17T20:19:35.004Z,100464.84
2023-11-17T20:24:39.104Z,100456.66
2023-11-17T20:29:44.262Z,100441.59
2023-11-17T20:34:48.542Z,100444.38
2023-11-17T20:39:52.781Z,100452.13
2023-11-17T20:44:57.271Z,100453.44
2023-11-17T20:50:02.034Z,100453.06
2023-11-17T20:55:07.132Z,100449.78
2023-11-17T21:00:12.532Z,100438.53
2023-11-17T21:05:16.840Z,100445.72
2023-11-17T21:10:23.811Z,100438.38
2023-11-17T21:15:28.920Z,100381.22
2023-11-17T21:20:35.092Z,100437.09
2023-11-17T21:25:40.410Z,100435.03
2023-11-17T21:30:44.378Z,100433.47
2023-11-17T21:35:48.733Z,100425.06
2023-11-17T21:40:58.270Z,100421.31
2023-11-17T21:46:03.866Z,100399.75
2023-11-17T21:51:12.181Z,100420.06
2023-11-17T21:56:22.120Z,100352.19
2023-11-17T22:01:26.353Z,100390.50
2023-11-17T22:06:30.274Z,100408.03
2023-11-17T22:11:35.636Z,100413.81
2023-11-17T22:16:39.425Z,100418.72
2023-11-17T22:21:43.474Z,100420.25
2023-11-17T22:26:48.456Z,100421.63
2023-11-17T22:31:52.292Z,100414.34
2023-11-17T22:36:59.065Z,100396.81
2023-11-17T22:42:02.866Z,100411.69
2023-11-17T22:47:07.005Z,100401.06
2023-11-17T22:52:10.976Z,100403.28
2023-11-17T22:57:14.821Z,100393.56
2023-11-17T23:02:20.406Z,100339.56
2023-11-17T23:07:27.993Z,100386.41
2023-11-17T23:12:31.981Z,100392.09
2023-11-17T23:17:36.307Z,100387.69
2023-11-17T23:22:41.761Z,100382.47
2023-11-17T23:27:45.894Z,100384.06
2023-11-17T23:32:50.101Z,100377.44
2023-11-17T23:37:54.761Z,100369.22
2023-11-17T23:42:58.822Z,100360.41
2023-11-17T23:48:04.200Z,100365.44
2023-11-17T23:53:09.644Z,100356.69
2023-11-17T23:58:14.155Z,100356.53
